Weather at Sunstate Heliport [CLOSED]

Public forecast

Using degrees Fahrenheit for public forecast. Weather courtesy of forecast.io.

Closest aviation weather report (METAR) to Sunstate Heliport

Closest report is Phoenix Sky Harbor International Airport, 2.2 nm (4.0 km) WSW.

2024/07/18 16:51 (retrieved 12 minutes ago)

KPHX 181651Z 34003KT 10SM FEW080 FEW110 SCT140 SCT230 SCT290 38/15 A2993 RMK AO2 SLP111 T03830150

Closest aviation forecast (TAF) to Sunstate Heliport

Closest forecast is Phoenix Sky Harbor International Airport, 2.2 nm (4.0 km) WSW.

2024/07/18 15:12 Ammendment (retrieved 2 hours ago)

TAF AMD KPHX 181509Z 1815/1918 VRB05KT P6SM FEW120 SCT150 SCT250 FM181900 27010KT P6SM FEW120 FEW250 FM190400 06012KT P6SM VCSH SCT120 BKN150 BKN250 TEMPO 1904/1906 05014G22KT FM190800 09006KT P6SM FEW120 SCT150 BKN250